Data for 02/13/2008

Time Sea-Level Adjusted Pressure Absolute Pressure Temperature Relative Humidity Dew Point   
(mb) (inHg) (mb) (inHg) (C) (F) (%) (C) (F)
00:05 1008 29.77 837 24.72 3.3 37.9 73 -1.2 29.9
00:10 1008 29.77 837 24.72 3.3 38 73 -1.1 30
00:15 1007 29.74 837 24.72 3.4 38 73 -1.1 30
00:20 1007 29.74 837 24.72 3.4 38.1 72 -1.2 29.9
00:25 1007 29.74 837 24.72 3.5 38.3 71 -1.3 29.7
00:30 1007 29.74 836 24.69 3.6 38.4 70 -1.4 29.6
00:35 1007 29.74 836 24.69 3.6 38.6 70 -1.3 29.6
00:40 1007 29.74 836 24.69 3.6 38.5 70 -1.4 29.4
00:45 1007 29.74 836 24.69 3.6 38.5 70 -1.4 29.5
00:50 1007 29.74 836 24.69 3.6 38.6 68 -1.7 29
00:55 1007 29.74 836 24.69 3.8 38.8 68 -1.5 29.3
01:00 1007 29.74 836 24.69 3.9 39 68 -1.5 29.2
01:05 1007 29.74 836 24.69 3.9 39 68 -1.5 29.2
01:10 1007 29.74 836 24.69 3.9 39 68 -1.5 29.2
01:15 1007 29.74 836 24.69 3.8 38.8 69 -1.4 29.5
01:20 1006 29.71 836 24.69 3.5 38.4 71 -1.2 29.9
01:25 1006 29.71 835 24.66 3.2 37.8 72 -1.3 29.7
01:30 1006 29.71 835 24.66 3.3 37.9 73 -1.1 30
01:35 1006 29.71 835 24.66 3.1 37.6 74 -1 30.2
01:40 1006 29.71 835 24.66 3.1 37.5 73 -1.3 29.6
01:45 1006 29.71 835 24.66 3.3 38 72 -1.3 29.6
01:50 1006 29.71 835 24.66 3.3 37.9 73 -1.1 30
01:55 1005 29.68 835 24.66 3.4 38.1 69 -1.8 28.7
02:00 1005 29.68 835 24.66 3.9 39 64 -2.3 27.9
02:05 1005 29.68 834 24.63 4.4 39.9 62 -2.3 27.9
02:10 1005 29.68 834 24.63 5 41 57 -2.9 26.9
02:15 1005 29.68 834 24.63 5.3 41.5 57 -2.5 27.5
02:20 1005 29.68 834 24.63 5.4 41.8 56 -2.7 27.2
02:25 1005 29.68 834 24.63 5.7 42.2 56 -2.5 27.6
02:30 1005 29.68 834 24.63 5.8 42.4 55 -2.7 27.2
02:35 1005 29.68 834 24.63 5.9 42.6 54 -2.8 27
02:40 1005 29.68 834 24.63 6 42.8 52 -3 26.5
02:45 1004 29.65 834 24.63 6 42.8 53 -2.7 27.1
02:50 1004 29.65 834 24.63 5.9 42.6 55 -2.6 27.4
02:55 1004 29.65 834 24.63 5.9 42.6 57 -1.9 28.6
03:00 1004 29.65 833 24.6 5.3 41.5 59 -2 28.4
03:05 1004 29.65 833 24.6 5 41 60 -2.1 28.2
03:10 1004 29.65 833 24.6 4.8 40.6 61 -2.1 28.1
03:15 1004 29.65 833 24.6 5.1 41.1 56 -2.9 26.8
03:20 1004 29.65 833 24.6 5.3 41.5 57 -2.6 27.3
03:25 1004 29.65 833 24.6 5.2 41.3 57 -2.6 27.4
03:30 1004 29.65 833 24.6 5.1 41.2 56 -2.9 26.8
03:35 1004 29.65 833 24.6 5.3 41.5 55 -3 26.5
03:40 1004 29.65 833 24.6 5.4 41.7 55 -2.8 26.9
03:45 1004 29.65 833 24.6 5.3 41.6 56 -2.8 26.9
03:50 1004 29.65 833 24.6 5.2 41.4 57 -2.6 27.3
03:55 1004 29.65 833 24.6 5 40.9 59 -2.5 27.6
04:00 1004 29.65 833 24.6 4.7 40.5 56 -3.2 26.2
04:05 1004 29.65 833 24.6 4.9 40.9 58 -2.5 27.4
04:10 1004 29.65 833 24.6 4.6 40.3 59 -2.6 27.3
04:15 1004 29.65 833 24.6 4.6 40.3 58 -2.9 26.8
04:20 1004 29.65 833 24.6 4.9 40.7 59 -2.6 27.4
04:25 1004 29.65 833 24.6 5 41.1 58 -2.4 27.6
04:30 1004 29.65 833 24.6 5.2 41.4 59 -2.1 28.2
04:35 1004 29.65 833 24.6 5 41.1 60 -2 28.4
04:40 1004 29.65 833 24.6 4.8 40.7 63 -1.6 29.2
04:45 1004 29.65 833 24.6 4.3 39.8 68 -1 30.2
04:50 1004 29.65 833 24.6 3.8 38.8 74 -0.5 31.2
04:55 1004 29.65 834 24.63 3 37.4 81 0.1 32.2
05:00 1005 29.68 834 24.63 1.8 35.2 90 0.4 32.7
05:05 1005 29.68 834 24.63 0.8 33.4 94 -0 31.9
05:10 1005 29.68 834 24.63 0.4 32.7 96 -0.2 31.7
05:15 1005 29.68 834 24.63 0.2 32.4 97 -0.3 31.5
05:20 1005 29.68 834 24.63 0.2 32.3 97 -0.3 31.4
05:25 1005 29.68 834 24.63 0.2 32.3 97 -0.3 31.5
05:30 1005 29.68 834 24.63 0.3 32.6 96 -0.2 31.6
05:35 1005 29.68 834 24.63 0.4 32.7 96 -0.2 31.7
05:40 1005 29.68 834 24.63 0.4 32.7 96 -0.2 31.7
05:45 1005 29.68 834 24.63 0.4 32.6 96 -0.2 31.6
05:50 1005 29.68 834 24.63 0.4 32.7 95 -0.3 31.5
05:55 1005 29.68 834 24.63 0.5 32.9 95 -0.2 31.6
06:00 1005 29.68 834 24.63 0.5 33 94 -0.3 31.5
06:05 1005 29.68 834 24.63 0.6 33 93 -0.5 31.2
06:10 1005 29.68 834 24.63 0.6 33 93 -0.4 31.4
06:15 1005 29.68 834 24.63 0.6 33.1 93 -0.3 31.4
06:20 1005 29.68 834 24.63 0.6 33.1 93 -0.4 31.4
06:25 1005 29.68 834 24.63 0.6 33.1 95 -0.1 31.7
06:30 1005 29.68 835 24.66 0.4 32.7 94 -0.4 31.3
06:35 1006 29.71 835 24.66 -0.1 31.8 94 -0.9 30.4
06:40 1006 29.71 835 24.66 -0.4 31.3 92 -1.5 29.2
06:45 1006 29.71 835 24.66 -0.5 31 87 -2.4 27.6
06:50 1006 29.71 835 24.66 -0.4 31.2 82 -3.1 26.5
06:55 1006 29.71 835 24.66 -0.4 31.3 75 -4.4 24.1
07:00 1006 29.71 835 24.66 -0.6 31 74 -4.7 23.6
07:05 1006 29.71 835 24.66 -0.7 30.8 73 -4.9 23.3
07:10 1006 29.71 835 24.66 -0.6 30.9 68 -5.8 21.5
07:15 1006 29.71 835 24.66 -0.6 30.9 71 -5.2 22.6
07:20 1006 29.71 835 24.66 -0.9 30.4 68 -6.1 21.1
07:25 1006 29.71 835 24.66 -0.8 30.6 75 -4.7 23.6
07:30 1006 29.71 835 24.66 -1 30.3 80 -4 24.8
07:35 1006 29.71 835 24.66 -1.2 29.9 79 -4.4 24.1
07:40 1006 29.71 836 24.69 -1.1 30 77 -4.6 23.7
07:45 1007 29.74 836 24.69 -1.1 30 79 -4.2 24.4
07:50 1007 29.74 836 24.69 -1.3 29.8 82 -4 24.9
07:55 1007 29.74 836 24.69 -1.3 29.7 83 -3.7 25.3
08:00 1007 29.74 836 24.69 -1.4 29.5 85 -3.6 25.5
08:05 1007 29.74 836 24.69 -1.4 29.6 84 -3.7 25.3
08:10 1007 29.74 836 24.69 -1.5 29.4 85 -3.7 25.4
08:15 1007 29.74 836 24.69 -1.5 29.4 87 -3.3 26.1
08:20 1007 29.74 836 24.69 -1.7 29 88 -3.4 25.8
08:25 1007 29.74 836 24.69 -1.8 28.8 87 -3.7 25.4
08:30 1007 29.74 836 24.69 -1.7 28.9 86 -3.8 25.2
08:35 1007 29.74 836 24.69 -1.7 28.9 81 -4.6 23.7
08:40 1007 29.74 836 24.69 -1.6 29.1 75 -5.4 22.2
08:45 1007 29.74 836 24.69 -1.4 29.5 69 -6.3 20.6
08:50 1007 29.74 836 24.69 -1.3 29.7 67 -6.6 20.1
08:55 1007 29.74 836 24.69 -1.3 29.6 70 -6.2 20.9
09:00 1007 29.74 836 24.69 -1.5 29.3 66 -7 19.4
09:05 1007 29.74 836 24.69 -1.4 29.4 63 -7.5 18.4
09:10 1007 29.74 836 24.69 -1.4 29.4 66 -6.9 19.5
09:15 1007 29.74 836 24.69 -1.3 29.6 63 -7.5 18.5
09:20 1007 29.74 836 24.69 -1.4 29.5 63 -7.5 18.5
09:25 1007 29.74 836 24.69 -1.6 29.1 64 -7.5 18.5
09:30 1007 29.74 836 24.69 -1.7 28.9 64 -7.6 18.3
09:35 1007 29.74 836 24.69 -1.8 28.8 65 -7.6 18.3
09:40 1007 29.74 836 24.69 -1.7 28.9 61 -8.2 17.2
09:45 1007 29.74 836 24.69 -1.5 29.3 58 -8.8 16.2
09:50 1007 29.74 836 24.69 -1.5 29.3 57 -9 15.8
09:55 1007 29.74 836 24.69 -1.7 29 59 -8.8 16.2
10:00 1007 29.74 836 24.69 -1.8 28.8 58 -9 15.8
10:05 1006 29.71 836 24.69 -1.6 29 56 -9.3 15.3
10:10 1006 29.71 836 24.69 -1.6 29.1 54 -9.7 14.6
10:15 1006 29.71 836 24.69 -1.5 29.2 54 -9.6 14.6
10:20 1007 29.74 836 24.69 -1.4 29.4 53 -9.7 14.5
10:25 1007 29.74 836 24.69 -1.3 29.7 53 -9.7 14.5
10:30 1007 29.74 836 24.69 -0.9 30.3 51 -9.9 14.2
10:35 1007 29.74 836 24.69 -1 30.1 52 -9.7 14.5
10:40 1007 29.74 836 24.69 -1 30.1 52 -9.6 14.6
10:45 1007 29.74 837 24.72 -1 30.2 52 -9.7 14.6
10:50 1007 29.74 837 24.72 -0.9 30.3 52 -9.5 14.9
10:55 1007 29.74 837 24.72 -0.8 30.6 52 -9.5 15
11:00 1008 29.77 837 24.72 -0.4 31.2 53 -9 15.8
11:05 1008 29.77 837 24.72 -0.1 31.8 49 -9.5 14.8
11:10 1008 29.77 837 24.72 -0 32 50 -9.2 15.5
11:15 1008 29.77 837 24.72 -0 31.9 51 -8.9 15.9
11:20 1008 29.77 837 24.72 -0 32 54 -8.4 17
11:25 1008 29.77 837 24.72 0.1 32.2 54 -8 17.6
11:30 1008 29.77 837 24.72 0.3 32.5 49 -9.2 15.4
11:35 1008 29.77 837 24.72 0.2 32.3 46 -10.1 13.8
11:40 1008 29.77 837 24.72 0.1 32.2 49 -9.5 15
11:45 1008 29.77 837 24.72 0 32.1 50 -9.1 15.6
11:50 1008 29.77 837 24.72 0.1 32.1 51 -8.8 16.1
11:55 1008 29.77 837 24.72 0.1 32.3 52 -8.7 16.4
12:00 1008 29.77 837 24.72 0.2 32.3 49 -9.2 15.4
12:05 1008 29.77 837 24.72 0.4 32.7 49 -9.1 15.7
12:10 1008 29.77 837 24.72 0.4 32.7 49 -9 15.7
12:15 1008 29.77 837 24.72 0.3 32.5 48 -9.5 14.9
12:20 1008 29.77 837 24.72 0.2 32.4 50 -9 15.8
12:25 1008 29.77 837 24.72 0.2 32.4 51 -8.9 16
12:30 1008 29.77 837 24.72 0.3 32.5 50 -9 15.8
12:35 1008 29.77 837 24.72 0.4 32.8 50 -8.9 16.1
12:40 1008 29.77 837 24.72 0.8 33.4 50 -8.4 16.8
12:45 1008 29.77 837 24.72 1 33.9 49 -8.4 16.8
12:50 1008 29.77 837 24.72 1.1 33.9 47 -9.1 15.6
12:55 1008 29.77 837 24.72 1.4 34.5 45 -9.3 15.2
13:00 1008 29.77 837 24.72 1.4 34.4 48 -8.6 16.6
13:05 1008 29.77 837 24.72 0.8 33.4 49 -8.7 16.4
13:10 1008 29.77 837 24.72 0.9 33.7 48 -8.9 15.9
13:15 1008 29.77 837 24.72 1 33.9 50 -8.4 16.9
13:20 1008 29.77 837 24.72 1.1 34 48 -8.6 16.4
13:25 1008 29.77 837 24.72 1 33.8 44 -10 14
13:30 1008 29.77 837 24.72 0.5 32.9 47 -9.5 14.8
13:35 1008 29.77 837 24.72 0.7 33.2 46 -9.5 14.9
13:40 1008 29.77 837 24.72 0.9 33.6 45 -9.8 14.4
13:45 1008 29.77 837 24.72 0.4 32.8 46 -9.8 14.4
13:50 1008 29.77 837 24.72 0.3 32.5 47 -9.6 14.6
13:55 1007 29.74 837 24.72 0.5 33 45 -10 14
14:00 1007 29.74 837 24.72 0.8 33.5 47 -9.3 15.2
14:05 1007 29.74 837 24.72 1.5 34.8 43 -9.8 14.4
14:10 1007 29.74 837 24.72 2 35.5 42 -9.7 14.6
14:15 1007 29.74 837 24.72 1.4 34.5 43 -9.9 14.1
14:20 1007 29.74 837 24.72 1 33.8 46 -9.5 14.9
14:25 1007 29.74 837 24.72 0.8 33.5 44 -9.9 14.1
14:30 1007 29.74 837 24.72 0.7 33.2 44 -10.4 13.3
14:35 1007 29.74 837 24.72 0.7 33.2 46 -9.7 14.5
14:40 1008 29.77 837 24.72 0.4 32.7 46 -9.8 14.3
14:45 1008 29.77 837 24.72 0.2 32.3 45 -10.5 13.2
14:50 1008 29.77 837 24.72 0.1 32.3 48 -9.7 14.5
14:55 1008 29.77 837 24.72 0.3 32.5 47 -9.8 14.4
15:00 1008 29.77 837 24.72 0.1 32.2 49 -9.4 15.1
15:05 1008 29.77 837 24.72 0.1 32.1 47 -10 14
15:10 1008 29.77 837 24.72 -0.1 31.9 49 -9.6 14.8
15:15 1008 29.77 837 24.72 -0.2 31.7 50 -9.3 15.3
15:20 1008 29.77 838 24.75 -0.2 31.6 51 -9.3 15.3
15:25 1009 29.8 838 24.75 -0.2 31.7 53 -8.7 16.4
15:30 1009 29.8 838 24.75 -0.2 31.7 53 -8.7 16.4
15:35 1009 29.8 838 24.75 -0.5 31.1 53 -9 15.8
15:40 1009 29.8 838 24.75 -0.9 30.4 59 -7.9 17.7
15:45 1009 29.8 838 24.75 -1.3 29.7 68 -6.4 20.4
15:50 1009 29.8 838 24.75 -1.9 28.6 72 -6.2 20.8
15:55 1009 29.8 839 24.78 -1.8 28.7 71 -6.4 20.6
16:00 1009 29.8 839 24.78 -1.8 28.8 73 -6 21.3
16:05 1010 29.83 839 24.78 -1.6 29.1 71 -6.2 20.9
16:10 1010 29.83 839 24.78 -1.6 29.1 73 -5.9 21.4
16:15 1010 29.83 839 24.78 -1.6 29.1 74 -5.6 22
16:20 1010 29.83 839 24.78 -1.6 29.1 75 -5.5 22.1
16:25 1010 29.83 839 24.78 -1.6 29.1 74 -5.7 21.7
16:30 1010 29.83 839 24.78 -1.5 29.3 73 -5.7 21.7
16:35 1010 29.83 839 24.78 -1.5 29.2 74 -5.5 22
16:40 1010 29.83 839 24.78 -1.6 29.1 75 -5.5 22
16:45 1010 29.83 839 24.78 -1.6 29.2 74 -5.6 21.9
16:50 1010 29.83 839 24.78 -1.7 29 74 -5.7 21.8
16:55 1010 29.83 839 24.78 -1.8 28.8 73 -6 21.2
17:00 1010 29.83 840 24.81 -1.9 28.7 72 -6.3 20.7
17:05 1010 29.83 840 24.81 -1.9 28.6 70 -6.7 19.9
17:10 1011 29.85 840 24.81 -2 28.4 71 -6.6 20.1
17:15 1011 29.85 840 24.81 -2 28.4 70 -6.8 19.8
17:20 1011 29.85 840 24.81 -2 28.3 72 -6.5 20.3
17:25 1011 29.85 840 24.81 -2.2 28 75 -6.1 21.1
17:30 1011 29.85 840 24.81 -2.3 27.8 76 -6.1 21.1
17:35 1011 29.85 840 24.81 -2.4 27.7 75 -6.2 20.8
17:40 1011 29.85 840 24.81 -2.4 27.6 73 -6.7 20
17:45 1011 29.85 840 24.81 -2.5 27.5 71 -7 19.4
17:50 1011 29.85 841 24.83 -2.5 27.5 72 -6.9 19.6
17:55 1012 29.88 841 24.83 -2.5 27.4 72 -6.9 19.6
18:00 1012 29.88 841 24.83 -2.5 27.6 70 -7.2 19
18:05 1012 29.88 841 24.83 -2.4 27.7 70 -7.1 19.2
18:10 1012 29.88 841 24.83 -2.3 27.8 70 -7.1 19.3
18:15 1012 29.88 841 24.83 -2.3 27.9 70 -7.1 19.3
18:20 1012 29.88 841 24.83 -2.3 27.8 71 -6.9 19.7
18:25 1012 29.88 841 24.83 -2.4 27.7 72 -6.7 19.9
18:30 1012 29.88 842 24.86 -2.5 27.5 71 -7 19.4
18:35 1012 29.88 842 24.86 -2.6 27.4 66 -8.1 17.4
18:40 1012 29.88 842 24.86 -3 26.7 67 -8.3 17.1
18:45 1013 29.91 842 24.86 -3.3 26.1 69 -8.2 17.2
18:50 1013 29.91 842 24.86 -3.5 25.7 69 -8.5 16.8
18:55 1013 29.91 842 24.86 -3.5 25.6 71 -8.1 17.4
19:00 1013 29.91 842 24.86 -3.5 25.7 71 -8 17.6
19:05 1013 29.91 842 24.86 -3.8 25.1 71 -8.3 17.1
19:10 1013 29.91 842 24.86 -4.1 24.6 73 -8.2 17.3
19:15 1013 29.91 842 24.86 -4.3 24.2 76 -8 17.6
19:20 1013 29.91 842 24.86 -4.4 24.1 77 -7.9 17.7
19:25 1013 29.91 842 24.86 -4.4 24.2 78 -7.6 18.3
19:30 1013 29.91 843 24.89 -4.6 23.8 82 -7.3 18.9
19:35 1014 29.94 843 24.89 -4.5 23.9 82 -7.2 19
19:40 1014 29.94 843 24.89 -4.4 24 86 -6.5 20.3
19:45 1014 29.94 843 24.89 -4.7 23.6 89 -6.3 20.7
19:50 1014 29.94 843 24.89 -4.8 23.4 87 -6.7 20
19:55 1014 29.94 843 24.89 -4.9 23.2 89 -6.5 20.3
20:00 1014 29.94 843 24.89 -5.1 22.8 90 -6.5 20.3
20:05 1014 29.94 843 24.89 -5.1 22.7 91 -6.4 20.4
20:10 1014 29.94 843 24.89 -5.1 22.7 91 -6.4 20.5
20:15 1014 29.94 844 24.92 -5 23.1 92 -6.1 21
20:20 1014 29.94 844 24.92 -4.8 23.4 90 -6.1 21
20:25 1014 29.94 844 24.92 -4.7 23.5 91 -6 21.2
20:30 1015 29.97 844 24.92 -4.7 23.6 91 -5.9 21.4
20:35 1015 29.97 844 24.92 -4.7 23.6 92 -5.9 21.5
20:40 1015 29.97 844 24.92 -4.6 23.7 91 -5.9 21.4
20:45 1015 29.97 844 24.92 -4.7 23.6 91 -5.9 21.4
20:50 1015 29.97 844 24.92 -4.7 23.6 91 -5.9 21.4
20:55 1015 29.97 844 24.92 -4.7 23.6 92 -5.8 21.6
21:00 1015 29.97 844 24.92 -4.7 23.6 91 -5.8 21.5
21:05 1015 29.97 844 24.92 -4.7 23.6 91 -5.9 21.4
21:10 1015 29.97 844 24.92 -4.8 23.4 91 -6 21.2
21:15 1015 29.97 844 24.92 -4.8 23.3 92 -6 21.3
21:20 1015 29.97 844 24.92 -4.8 23.4 92 -5.9 21.3
21:25 1015 29.97 845 24.95 -4.8 23.4 92 -5.9 21.4
21:30 1015 29.97 845 24.95 -4.8 23.4 92 -5.8 21.5
21:35 1015 29.97 845 24.95 -4.8 23.4 91 -6 21.3
21:40 1015 29.97 845 24.95 -4.9 23.2 92 -6 21.2
21:45 1015 29.97 845 24.95 -5.1 22.8 93 -6 21.1
21:50 1015 29.97 845 24.95 -5 23 92 -6.2 20.9
21:55 1015 29.97 845 24.95 -5 23.1 91 -6.2 20.9
22:00 1015 29.97 845 24.95 -5 23.1 91 -6.2 20.8
22:05 1015 29.97 845 24.95 -4.9 23.1 91 -6.2 20.9
22:10 1015 29.97 845 24.95 -4.9 23.1 90 -6.3 20.7
22:15 1016 30 845 24.95 -4.9 23.1 90 -6.4 20.6
22:20 1016 30 845 24.95 -4.8 23.3 89 -6.4 20.5
22:25 1016 30 845 24.95 -4.8 23.4 89 -6.3 20.7
22:30 1016 30 845 24.95 -4.8 23.4 89 -6.2 20.8
22:35 1016 30 845 24.95 -4.8 23.4 90 -6.2 20.9
22:40 1016 30 845 24.95 -4.8 23.4 90 -6.1 21
22:45 1016 30 845 24.95 -4.8 23.4 91 -6 21.1
22:50 1016 30 845 24.95 -4.8 23.3 92 -6 21.2
22:55 1016 30 845 24.95 -5 23 92 -6.1 21.1
23:00 1016 30 845 24.95 -5.1 22.8 92 -6.2 20.8
23:05 1016 30 845 24.95 -5.5 22.1 93 -6.6 20.2
23:10 1016 30 845 24.95 -5.7 21.7 93 -6.7 20
23:15 1016 30 845 24.95 -5.7 21.7 93 -6.7 20
23:20 1016 30 845 24.95 -5.6 22 93 -6.5 20.3
23:25 1016 30 845 24.95 -5.2 22.6 90 -6.6 20.1
23:30 1016 30 846 24.98 -5.2 22.6 91 -6.4 20.4
23:35 1016 30 846 24.98 -5.1 22.9 91 -6.3 20.6
23:40 1016 30 846 24.98 -4.9 23.1 91 -6.3 20.7
23:45 1017 30.03 846 24.98 -4.9 23.2 91 -6.2 20.9
23:50 1017 30.03 846 24.98 -4.8 23.3 90 -6.2 20.8
23:55 1017 30.03 846 24.98 -4.8 23.3 90 -6.2 20.9
24:00 1017 30.03 846 24.98 -4.9 23.2 91 -6.2 20.9